KOSH/OSH METAR and TAF weather

Enter ICAO airport designator
Station Type Date Time Source
KOSH METAR 2021/07/28 19:53 UTC NOAA

KOSH 281953Z 14004KT 10SM CLR 28/23 A2997 RMK AO2 SLP136 T02830233


Station Type Date Time Source
KOSH Decoded METAR 2021/07/28 19:53 UTC NOAA

WITTMAN REGIONAL AIRPORT, WI, United States (KOSH) 43-58N 88-33W 248M
Jul 28, 2021 - 03:53 PM EDT / 2021.07.28 1953 UTC
Wind: from the SE (140 degrees) at 5 MPH (4 KT):0
Visibility: 10 mile(s):0
Sky conditions: clear
Temperature: 82.9 F (28.3 C)
Dew Point: 73.9 F (23.3 C)
Relative Humidity: 74%
Pressure (altimeter): 29.97 in. Hg (1014 hPa)
ob: KOSH 281953Z 14004KT 10SM CLR 28/23 A2997 RMK AO2 SLP136 T02830233
cycle: 20

Station Type Date Time Source
KOSH TAF 2021/07/28 19:33 UTC NOAA

TAF
AMD KOSH 281830Z 2819/2918 10006KT P6SM SCT025 BKN200
FM282000 11006KT P6SM VCSH SCT030 BKN110
FM290300 13009KT 5SM -SHRA BR SCT025 OVC050
TEMPO 2903/2906 33035G50KT 1SM +TSRA SCT012 BKN025CB
FM290800 VRB04KT 5SM BR BKN015
TEMPO 2909/2912 2SM BR SCT005
FM291200 35008KT 6SM BR BKN020
FM291500 35011G18KT P6SM BKN040

Example: see airport list